sensor_id;sensor_type;location;lat;lon;timestamp;temperature;humidity
45409;DHT22;31162;51.076;3.784;2022-11-15T00:00:44;11.60;99.90
45409;DHT22;31162;51.076;3.784;2022-11-15T00:03:09;11.70;99.90
45409;DHT22;31162;51.076;3.784;2022-11-15T00:05:35;11.80;99.90
45409;DHT22;31162;51.076;3.784;2022-11-15T00:08:01;11.90;99.90
45409;DHT22;31162;51.076;3.784;2022-11-15T00:10:27;11.90;99.90
45409;DHT22;31162;51.076;3.784;2022-11-15T00:12:52;11.90;99.90
45409;DHT22;31162;51.076;3.784;2022-11-15T00:15:18;12.10;99.90
45409;DHT22;31162;51.076;3.784;2022-11-15T00:17:44;12.00;99.90
45409;DHT22;31162;51.076;3.784;2022-11-15T00:20:09;12.00;99.90
45409;DHT22;31162;51.076;3.784;2022-11-15T00:22:36;12.00;99.90
45409;DHT22;31162;51.076;3.784;2022-11-15T00:25:02;12.00;99.90
45409;DHT22;31162;51.076;3.784;2022-11-15T00:27:28;12.00;99.90
45409;DHT22;31162;51.076;3.784;2022-11-15T00:29:54;12.10;99.90
45409;DHT22;31162;51.076;3.784;2022-11-15T00:32:19;12.10;99.90
45409;DHT22;31162;51.076;3.784;2022-11-15T00:34:45;12.20;99.90
45409;DHT22;31162;51.076;3.784;2022-11-15T00:37:11;12.20;99.90
45409;DHT22;31162;51.076;3.784;2022-11-15T00:39:36;12.20;99.90
45409;DHT22;31162;51.076;3.784;2022-11-15T00:42:02;12.30;99.90
45409;DHT22;31162;51.076;3.784;2022-11-15T00:44:28;12.20;99.90
45409;DHT22;31162;51.076;3.784;2022-11-15T00:46:53;12.20;99.90
45409;DHT22;31162;51.076;3.784;2022-11-15T00:49:19;12.30;99.90
45409;DHT22;31162;51.076;3.784;2022-11-15T00:51:44;12.20;99.90
45409;DHT22;31162;51.076;3.784;2022-11-15T00:54:10;12.20;99.90
45409;DHT22;31162;51.076;3.784;2022-11-15T00:56:36;12.20;99.90
45409;DHT22;31162;51.076;3.784;2022-11-15T00:59:01;12.10;99.90
45409;DHT22;31162;51.076;3.784;2022-11-15T01:01:27;12.00;99.90
45409;DHT22;31162;51.076;3.784;2022-11-15T01:03:53;12.10;99.90
45409;DHT22;31162;51.076;3.784;2022-11-15T01:06:18;12.20;99.90
45409;DHT22;31162;51.076;3.784;2022-11-15T01:08:44;12.10;99.90
45409;DHT22;31162;51.076;3.784;2022-11-15T01:11:11;12.10;99.90
45409;DHT22;31162;51.076;3.784;2022-11-15T01:13:38;12.20;99.90
45409;DHT22;31162;51.076;3.784;2022-11-15T01:16:13;12.30;99.90
45409;DHT22;31162;51.076;3.784;2022-11-15T01:18:39;12.30;99.90
45409;DHT22;31162;51.076;3.784;2022-11-15T01:21:10;12.50;99.90
45409;DHT22;31162;51.076;3.784;2022-11-15T01:23:36;12.40;99.90
45409;DHT22;31162;51.076;3.784;2022-11-15T01:26:03;12.40;99.90
45409;DHT22;31162;51.076;3.784;2022-11-15T01:28:34;12.30;99.90
45409;DHT22;31162;51.076;3.784;2022-11-15T01:31:05;12.30;99.90
45409;DHT22;31162;51.076;3.784;2022-11-15T01:33:33;12.30;99.90
45409;DHT22;31162;51.076;3.784;2022-11-15T01:36:04;12.20;99.90
45409;DHT22;31162;51.076;3.784;2022-11-15T01:38:30;12.30;99.90
45409;DHT22;31162;51.076;3.784;2022-11-15T01:40:56;12.40;99.90
45409;DHT22;31162;51.076;3.784;2022-11-15T01:43:30;12.40;99.90
45409;DHT22;31162;51.076;3.784;2022-11-15T01:48:33;12.50;99.90
45409;DHT22;31162;51.076;3.784;2022-11-15T01:51:06;12.50;99.90
45409;DHT22;31162;51.076;3.784;2022-11-15T01:53:34;12.50;99.90
45409;DHT22;31162;51.076;3.784;2022-11-15T01:56:08;12.60;99.90
45409;DHT22;31162;51.076;3.784;2022-11-15T01:58:36;12.50;99.90
45409;DHT22;31162;51.076;3.784;2022-11-15T02:01:02;12.40;99.90
45409;DHT22;31162;51.076;3.784;2022-11-15T02:03:35;12.30;99.90
45409;DHT22;31162;51.076;3.784;2022-11-15T02:06:04;12.40;99.90
45409;DHT22;31162;51.076;3.784;2022-11-15T02:08:30;12.40;99.90
45409;DHT22;31162;51.076;3.784;2022-11-15T02:10:56;12.40;99.90
45409;DHT22;31162;51.076;3.784;2022-11-15T02:13:22;12.40;99.90
45409;DHT22;31162;51.076;3.784;2022-11-15T02:18:39;12.30;99.90
45409;DHT22;31162;51.076;3.784;2022-11-15T02:24:10;12.20;99.90
45409;DHT22;31162;51.076;3.784;2022-11-15T02:26:57;12.20;99.90
45409;DHT22;31162;51.076;3.784;2022-11-15T02:33:02;12.20;99.90
45409;DHT22;31162;51.076;3.784;2022-11-15T02:37:56;12.20;99.90
45409;DHT22;31162;51.076;3.784;2022-11-15T02:40:46;12.20;99.90
45409;DHT22;31162;51.076;3.784;2022-11-15T02:43:21;12.20;99.90
45409;DHT22;31162;51.076;3.784;2022-11-15T02:46:12;12.10;99.90
45409;DHT22;31162;51.076;3.784;2022-11-15T02:48:41;12.10;99.90
45409;DHT22;31162;51.076;3.784;2022-11-15T02:51:08;12.20;99.90
45409;DHT22;31162;51.076;3.784;2022-11-15T02:53:34;12.30;99.90
45409;DHT22;31162;51.076;3.784;2022-11-15T02:56:00;12.20;99.90
45409;DHT22;31162;51.076;3.784;2022-11-15T03:04:35;12.20;99.90
45409;DHT22;31162;51.076;3.784;2022-11-15T03:07:11;12.20;99.90
45409;DHT22;31162;51.076;3.784;2022-11-15T03:09:43;12.20;99.90
45409;DHT22;31162;51.076;3.784;2022-11-15T03:12:45;12.20;99.90
45409;DHT22;31162;51.076;3.784;2022-11-15T03:15:26;12.20;99.90
45409;DHT22;31162;51.076;3.784;2022-11-15T03:18:36;12.10;99.90
45409;DHT22;31162;51.076;3.784;2022-11-15T03:20:42;12.00;99.90
45409;DHT22;31162;51.076;3.784;2022-11-15T03:23:10;12.00;99.90
45409;DHT22;31162;51.076;3.784;2022-11-15T03:25:44;11.90;99.90
45409;DHT22;31162;51.076;3.784;2022-11-15T03:28:16;11.90;99.90
45409;DHT22;31162;51.076;3.784;2022-11-15T03:30:42;11.90;99.90
45409;DHT22;31162;51.076;3.784;2022-11-15T03:33:11;12.00;99.90
45409;DHT22;31162;51.076;3.784;2022-11-15T03:35:43;11.90;99.90
45409;DHT22;31162;51.076;3.784;2022-11-15T03:38:26;11.90;99.90
45409;DHT22;31162;51.076;3.784;2022-11-15T03:40:58;11.90;99.90
45409;DHT22;31162;51.076;3.784;2022-11-15T03:43:36;11.80;99.90
45409;DHT22;31162;51.076;3.784;2022-11-15T03:46:14;11.90;99.90
45409;DHT22;31162;51.076;3.784;2022-11-15T03:48:44;11.80;99.90
45409;DHT22;31162;51.076;3.784;2022-11-15T03:51:12;11.70;99.90
45409;DHT22;31162;51.076;3.784;2022-11-15T03:53:38;11.70;99.90
45409;DHT22;31162;51.076;3.784;2022-11-15T03:56:06;11.60;99.90
45409;DHT22;31162;51.076;3.784;2022-11-15T03:58:31;11.60;99.90
45409;DHT22;31162;51.076;3.784;2022-11-15T04:00:57;11.60;99.90
45409;DHT22;31162;51.076;3.784;2022-11-15T04:03:25;11.60;99.90
45409;DHT22;31162;51.076;3.784;2022-11-15T04:05:50;11.40;99.90
45409;DHT22;31162;51.076;3.784;2022-11-15T04:08:16;11.30;99.90
45409;DHT22;31162;51.076;3.784;2022-11-15T04:10:42;11.20;99.90
45409;DHT22;31162;51.076;3.784;2022-11-15T04:13:07;11.20;99.90
45409;DHT22;31162;51.076;3.784;2022-11-15T04:15:33;11.20;99.90
45409;DHT22;31162;51.076;3.784;2022-11-15T04:17:59;11.40;99.90
45409;DHT22;31162;51.076;3.784;2022-11-15T04:20:29;11.40;99.90
45409;DHT22;31162;51.076;3.784;2022-11-15T04:23:17;11.40;99.90
45409;DHT22;31162;51.076;3.784;2022-11-15T04:26:11;11.30;99.90
45409;DHT22;31162;51.076;3.784;2022-11-15T04:28:37;11.30;99.90
45409;DHT22;31162;51.076;3.784;2022-11-15T04:31:21;11.20;99.90
45409;DHT22;31162;51.076;3.784;2022-11-15T04:33:47;11.10;99.90
45409;DHT22;31162;51.076;3.784;2022-11-15T04:36:12;11.00;99.90
45409;DHT22;31162;51.076;3.784;2022-11-15T04:38:56;11.00;99.90
45409;DHT22;31162;51.076;3.784;2022-11-15T04:41:22;10.90;99.90
45409;DHT22;31162;51.076;3.784;2022-11-15T04:43:47;10.80;99.90
45409;DHT22;31162;51.076;3.784;2022-11-15T04:46:13;10.70;99.90
45409;DHT22;31162;51.076;3.784;2022-11-15T04:48:39;10.60;99.90
45409;DHT22;31162;51.076;3.784;2022-11-15T04:51:04;10.60;99.90
45409;DHT22;31162;51.076;3.784;2022-11-15T04:53:30;10.60;99.90
45409;DHT22;31162;51.076;3.784;2022-11-15T04:55:56;10.60;99.90
45409;DHT22;31162;51.076;3.784;2022-11-15T04:58:21;10.60;99.90
45409;DHT22;31162;51.076;3.784;2022-11-15T05:00:47;10.50;99.90
45409;DHT22;31162;51.076;3.784;2022-11-15T05:03:13;10.50;99.90
45409;DHT22;31162;51.076;3.784;2022-11-15T05:05:57;10.40;99.90
45409;DHT22;31162;51.076;3.784;2022-11-15T05:08:23;10.40;99.90
45409;DHT22;31162;51.076;3.784;2022-11-15T05:10:49;10.30;99.90
45409;DHT22;31162;51.076;3.784;2022-11-15T05:13:14;10.30;99.90
45409;DHT22;31162;51.076;3.784;2022-11-15T05:15:40;10.30;99.90
45409;DHT22;31162;51.076;3.784;2022-11-15T05:18:06;10.30;99.90
45409;DHT22;31162;51.076;3.784;2022-11-15T05:20:31;10.20;99.90
45409;DHT22;31162;51.076;3.784;2022-11-15T05:22:57;10.10;99.90
45409;DHT22;31162;51.076;3.784;2022-11-15T05:25:23;10.10;99.90
45409;DHT22;31162;51.076;3.784;2022-11-15T05:27:49;10.10;99.90
45409;DHT22;31162;51.076;3.784;2022-11-15T05:30:15;10.00;99.90
45409;DHT22;31162;51.076;3.784;2022-11-15T05:32:42;9.90;99.90
45409;DHT22;31162;51.076;3.784;2022-11-15T05:35:17;10.00;99.90
45409;DHT22;31162;51.076;3.784;2022-11-15T05:37:44;9.90;99.90
45409;DHT22;31162;51.076;3.784;2022-11-15T05:40:09;9.90;99.90
45409;DHT22;31162;51.076;3.784;2022-11-15T05:42:35;9.90;99.90
45409;DHT22;31162;51.076;3.784;2022-11-15T05:45:03;9.80;99.90
45409;DHT22;31162;51.076;3.784;2022-11-15T05:47:30;9.70;99.90
45409;DHT22;31162;51.076;3.784;2022-11-15T05:49:56;9.60;99.90
45409;DHT22;31162;51.076;3.784;2022-11-15T05:52:25;9.60;99.90
45409;DHT22;31162;51.076;3.784;2022-11-15T05:54:53;9.50;99.90
45409;DHT22;31162;51.076;3.784;2022-11-15T05:57:19;9.50;99.90
45409;DHT22;31162;51.076;3.784;2022-11-15T05:59:45;9.50;99.90
45409;DHT22;31162;51.076;3.784;2022-11-15T06:02:11;9.40;99.90
45409;DHT22;31162;51.076;3.784;2022-11-15T06:04:36;9.40;99.90
45409;DHT22;31162;51.076;3.784;2022-11-15T06:07:02;9.50;99.90
45409;DHT22;31162;51.076;3.784;2022-11-15T06:09:28;9.40;99.90
45409;DHT22;31162;51.076;3.784;2022-11-15T06:11:53;9.50;99.90
45409;DHT22;31162;51.076;3.784;2022-11-15T06:14:19;9.40;99.90
45409;DHT22;31162;51.076;3.784;2022-11-15T06:16:45;9.30;99.90
45409;DHT22;31162;51.076;3.784;2022-11-15T06:19:10;9.30;99.90
45409;DHT22;31162;51.076;3.784;2022-11-15T06:21:36;9.30;99.90
45409;DHT22;31162;51.076;3.784;2022-11-15T06:24:02;9.30;99.90
45409;DHT22;31162;51.076;3.784;2022-11-15T06:26:27;9.30;99.90
45409;DHT22;31162;51.076;3.784;2022-11-15T06:28:53;9.30;99.90
45409;DHT22;31162;51.076;3.784;2022-11-15T06:31:18;9.40;99.90
45409;DHT22;31162;51.076;3.784;2022-11-15T06:33:44;9.40;99.90
45409;DHT22;31162;51.076;3.784;2022-11-15T06:36:12;9.30;99.90
45409;DHT22;31162;51.076;3.784;2022-11-15T06:38:43;9.30;99.90
45409;DHT22;31162;51.076;3.784;2022-11-15T06:41:10;9.20;99.90
45409;DHT22;31162;51.076;3.784;2022-11-15T06:43:37;9.30;99.90
45409;DHT22;31162;51.076;3.784;2022-11-15T06:46:03;9.20;99.90
45409;DHT22;31162;51.076;3.784;2022-11-15T06:48:31;9.30;99.90
45409;DHT22;31162;51.076;3.784;2022-11-15T06:50:58;9.20;99.90
45409;DHT22;31162;51.076;3.784;2022-11-15T06:53:24;9.20;99.90
45409;DHT22;31162;51.076;3.784;2022-11-15T06:55:50;9.30;99.90
45409;DHT22;31162;51.076;3.784;2022-11-15T06:58:16;9.30;99.90
45409;DHT22;31162;51.076;3.784;2022-11-15T07:00:42;9.40;99.90
45409;DHT22;31162;51.076;3.784;2022-11-15T07:03:08;9.30;99.90
45409;DHT22;31162;51.076;3.784;2022-11-15T07:05:34;9.30;99.90
45409;DHT22;31162;51.076;3.784;2022-11-15T07:08:00;9.30;99.90
45409;DHT22;31162;51.076;3.784;2022-11-15T07:10:26;9.30;99.90
45409;DHT22;31162;51.076;3.784;2022-11-15T07:12:52;9.20;99.90
45409;DHT22;31162;51.076;3.784;2022-11-15T07:15:20;9.20;99.90
45409;DHT22;31162;51.076;3.784;2022-11-15T07:17:46;9.20;99.90
45409;DHT22;31162;51.076;3.784;2022-11-15T07:20:12;9.30;99.90
45409;DHT22;31162;51.076;3.784;2022-11-15T07:22:41;9.40;99.90
45409;DHT22;31162;51.076;3.784;2022-11-15T07:25:08;9.50;99.90
45409;DHT22;31162;51.076;3.784;2022-11-15T07:27:34;9.50;99.90
45409;DHT22;31162;51.076;3.784;2022-11-15T07:30:01;9.60;99.90
45409;DHT22;31162;51.076;3.784;2022-11-15T07:32:27;9.70;99.90
45409;DHT22;31162;51.076;3.784;2022-11-15T07:34:52;9.70;99.90
45409;DHT22;31162;51.076;3.784;2022-11-15T07:37:18;9.70;99.90
45409;DHT22;31162;51.076;3.784;2022-11-15T07:39:44;9.80;99.90
45409;DHT22;31162;51.076;3.784;2022-11-15T07:42:09;9.90;99.90
45409;DHT22;31162;51.076;3.784;2022-11-15T07:44:54;10.00;99.90
45409;DHT22;31162;51.076;3.784;2022-11-15T07:47:19;10.00;99.90
45409;DHT22;31162;51.076;3.784;2022-11-15T07:49:46;10.00;99.90
45409;DHT22;31162;51.076;3.784;2022-11-15T07:52:12;10.10;99.90
45409;DHT22;31162;51.076;3.784;2022-11-15T07:54:38;10.20;99.90
45409;DHT22;31162;51.076;3.784;2022-11-15T07:57:04;10.30;99.90
45409;DHT22;31162;51.076;3.784;2022-11-15T07:59:30;10.30;99.90
45409;DHT22;31162;51.076;3.784;2022-11-15T08:01:56;10.30;99.90
45409;DHT22;31162;51.076;3.784;2022-11-15T08:04:21;10.30;99.90
45409;DHT22;31162;51.076;3.784;2022-11-15T08:06:47;10.40;99.90
45409;DHT22;31162;51.076;3.784;2022-11-15T08:09:13;10.40;99.90
45409;DHT22;31162;51.076;3.784;2022-11-15T08:11:38;10.50;99.90
45409;DHT22;31162;51.076;3.784;2022-11-15T08:14:04;10.50;99.90
45409;DHT22;31162;51.076;3.784;2022-11-15T08:16:30;10.50;99.90
45409;DHT22;31162;51.076;3.784;2022-11-15T08:18:56;10.50;99.90
45409;DHT22;31162;51.076;3.784;2022-11-15T08:21:22;10.60;99.90
45409;DHT22;31162;51.076;3.784;2022-11-15T08:23:48;10.60;99.90
45409;DHT22;31162;51.076;3.784;2022-11-15T08:26:14;10.50;99.90
45409;DHT22;31162;51.076;3.784;2022-11-15T08:28:40;10.50;99.90
45409;DHT22;31162;51.076;3.784;2022-11-15T08:31:06;10.60;99.90
45409;DHT22;31162;51.076;3.784;2022-11-15T08:33:32;10.70;99.90
45409;DHT22;31162;51.076;3.784;2022-11-15T08:35:59;10.70;99.90
45409;DHT22;31162;51.076;3.784;2022-11-15T08:38:26;10.90;99.90
45409;DHT22;31162;51.076;3.784;2022-11-15T08:40:59;11.00;99.90
45409;DHT22;31162;51.076;3.784;2022-11-15T08:43:26;11.20;99.90
45409;DHT22;31162;51.076;3.784;2022-11-15T08:45:56;11.40;99.90
45409;DHT22;31162;51.076;3.784;2022-11-15T08:48:21;11.40;99.90
45409;DHT22;31162;51.076;3.784;2022-11-15T08:50:47;11.40;99.90
45409;DHT22;31162;51.076;3.784;2022-11-15T08:53:13;11.40;99.90
45409;DHT22;31162;51.076;3.784;2022-11-15T08:55:39;11.70;99.90
45409;DHT22;31162;51.076;3.784;2022-11-15T08:58:06;11.70;99.90
45409;DHT22;31162;51.076;3.784;2022-11-15T09:00:33;11.80;99.90
45409;DHT22;31162;51.076;3.784;2022-11-15T09:02:59;11.80;99.90
45409;DHT22;31162;51.076;3.784;2022-11-15T09:05:25;11.80;99.90
45409;DHT22;31162;51.076;3.784;2022-11-15T09:07:54;12.00;99.90
45409;DHT22;31162;51.076;3.784;2022-11-15T09:10:21;12.20;99.90
45409;DHT22;31162;51.076;3.784;2022-11-15T09:12:46;12.30;99.90
45409;DHT22;31162;51.076;3.784;2022-11-15T09:15:15;12.40;99.90
45409;DHT22;31162;51.076;3.784;2022-11-15T09:17:41;12.40;99.90
45409;DHT22;31162;51.076;3.784;2022-11-15T09:20:08;12.40;99.90
45409;DHT22;31162;51.076;3.784;2022-11-15T09:22:34;12.40;99.90
45409;DHT22;31162;51.076;3.784;2022-11-15T09:25:02;12.30;99.90
45409;DHT22;31162;51.076;3.784;2022-11-15T09:27:31;12.20;99.90
45409;DHT22;31162;51.076;3.784;2022-11-15T09:29:57;12.30;99.90
45409;DHT22;31162;51.076;3.784;2022-11-15T09:32:23;12.30;99.90
45409;DHT22;31162;51.076;3.784;2022-11-15T09:34:52;12.30;99.90
45409;DHT22;31162;51.076;3.784;2022-11-15T09:37:17;12.40;99.90
45409;DHT22;31162;51.076;3.784;2022-11-15T09:39:43;12.40;99.90
45409;DHT22;31162;51.076;3.784;2022-11-15T09:47:38;12.60;99.90
45409;DHT22;31162;51.076;3.784;2022-11-15T09:50:42;12.70;99.90
45409;DHT22;31162;51.076;3.784;2022-11-15T09:53:11;12.70;99.90
45409;DHT22;31162;51.076;3.784;2022-11-15T09:55:47;12.80;99.90
45409;DHT22;31162;51.076;3.784;2022-11-15T10:01:04;12.80;99.90
45409;DHT22;31162;51.076;3.784;2022-11-15T10:03:34;12.90;99.90
45409;DHT22;31162;51.076;3.784;2022-11-15T10:06:05;13.00;99.90
45409;DHT22;31162;51.076;3.784;2022-11-15T10:08:36;13.10;99.90
45409;DHT22;31162;51.076;3.784;2022-11-15T10:11:11;13.20;99.90
45409;DHT22;31162;51.076;3.784;2022-11-15T10:13:44;13.20;99.90
45409;DHT22;31162;51.076;3.784;2022-11-15T10:16:33;13.40;99.90
45409;DHT22;31162;51.076;3.784;2022-11-15T10:25:01;13.90;99.90
45409;DHT22;31162;51.076;3.784;2022-11-15T10:27:35;14.20;99.90
45409;DHT22;31162;51.076;3.784;2022-11-15T10:30:02;14.60;99.90
45409;DHT22;31162;51.076;3.784;2022-11-15T10:32:30;14.70;99.90
45409;DHT22;31162;51.076;3.784;2022-11-15T10:34:58;14.60;99.90
45409;DHT22;31162;51.076;3.784;2022-11-15T10:37:29;14.70;99.90
45409;DHT22;31162;51.076;3.784;2022-11-15T10:40:06;14.70;99.90
45409;DHT22;31162;51.076;3.784;2022-11-15T10:42:32;14.80;99.90
45409;DHT22;31162;51.076;3.784;2022-11-15T10:44:57;14.90;99.90
45409;DHT22;31162;51.076;3.784;2022-11-15T10:47:31;15.00;99.90
45409;DHT22;31162;51.076;3.784;2022-11-15T10:50:25;15.30;99.90
45409;DHT22;31162;51.076;3.784;2022-11-15T10:52:51;15.50;99.90
45409;DHT22;31162;51.076;3.784;2022-11-15T10:58:32;16.50;99.90
45409;DHT22;31162;51.076;3.784;2022-11-15T11:00:38;16.70;99.90
45409;DHT22;31162;51.076;3.784;2022-11-15T11:03:31;16.80;99.90
45409;DHT22;31162;51.076;3.784;2022-11-15T11:06:10;16.80;99.90
45409;DHT22;31162;51.076;3.784;2022-11-15T11:08:36;16.70;99.90
45409;DHT22;31162;51.076;3.784;2022-11-15T11:11:03;16.60;99.90
45409;DHT22;31162;51.076;3.784;2022-11-15T11:13:35;16.20;99.90
45409;DHT22;31162;51.076;3.784;2022-11-15T11:27:13;16.00;99.90
45409;DHT22;31162;51.076;3.784;2022-11-15T11:30:20;15.70;99.90
45409;DHT22;31162;51.076;3.784;2022-11-15T11:38:41;15.50;99.90
45409;DHT22;31162;51.076;3.784;2022-11-15T11:41:27;15.40;99.90
45409;DHT22;31162;51.076;3.784;2022-11-15T11:44:17;15.50;99.90
45409;DHT22;31162;51.076;3.784;2022-11-15T11:52:19;15.60;99.90
45409;DHT22;31162;51.076;3.784;2022-11-15T11:55:00;15.50;99.90
45409;DHT22;31162;51.076;3.784;2022-11-15T12:00:20;15.20;99.90
45409;DHT22;31162;51.076;3.784;2022-11-15T12:03:05;15.20;99.90
45409;DHT22;31162;51.076;3.784;2022-11-15T12:11:16;14.70;99.90
45409;DHT22;31162;51.076;3.784;2022-11-15T12:13:43;14.80;99.90
45409;DHT22;31162;51.076;3.784;2022-11-15T12:18:46;14.70;99.90
45409;DHT22;31162;51.076;3.784;2022-11-15T12:24:05;14.50;99.90
45409;DHT22;31162;51.076;3.784;2022-11-15T12:26:40;14.50;99.90
45409;DHT22;31162;51.076;3.784;2022-11-15T12:29:16;14.50;99.90
45409;DHT22;31162;51.076;3.784;2022-11-15T12:31:49;14.40;99.90
45409;DHT22;31162;51.076;3.784;2022-11-15T12:34:35;14.40;99.90
45409;DHT22;31162;51.076;3.784;2022-11-15T12:37:02;14.50;99.90
45409;DHT22;31162;51.076;3.784;2022-11-15T12:40:17;14.60;99.90
45409;DHT22;31162;51.076;3.784;2022-11-15T12:45:37;14.60;99.90
45409;DHT22;31162;51.076;3.784;2022-11-15T13:06:50;14.30;99.90
45409;DHT22;31162;51.076;3.784;2022-11-15T13:12:47;14.50;99.90
45409;DHT22;31162;51.076;3.784;2022-11-15T13:14:50;14.50;99.90
45409;DHT22;31162;51.076;3.784;2022-11-15T13:22:22;14.50;99.90
45409;DHT22;31162;51.076;3.784;2022-11-15T13:25:16;14.50;99.90
45409;DHT22;31162;51.076;3.784;2022-11-15T13:27:47;14.50;99.90
45409;DHT22;31162;51.076;3.784;2022-11-15T13:30:20;14.60;99.90
45409;DHT22;31162;51.076;3.784;2022-11-15T13:32:46;14.50;99.90
45409;DHT22;31162;51.076;3.784;2022-11-15T13:35:27;14.50;99.90
45409;DHT22;31162;51.076;3.784;2022-11-15T13:37:55;14.40;99.90
45409;DHT22;31162;51.076;3.784;2022-11-15T13:42:53;14.50;99.90
45409;DHT22;31162;51.076;3.784;2022-11-15T13:45:19;14.40;99.90
45409;DHT22;31162;51.076;3.784;2022-11-15T13:47:54;14.10;99.90
45409;DHT22;31162;51.076;3.784;2022-11-15T13:50:23;13.90;99.90
45409;DHT22;31162;51.076;3.784;2022-11-15T13:52:50;13.80;99.90
45409;DHT22;31162;51.076;3.784;2022-11-15T13:55:19;13.60;99.90
45409;DHT22;31162;51.076;3.784;2022-11-15T14:00:58;13.50;99.90
45409;DHT22;31162;51.076;3.784;2022-11-15T14:03:24;13.50;99.90
45409;DHT22;31162;51.076;3.784;2022-11-15T14:06:12;13.40;99.90
45409;DHT22;31162;51.076;3.784;2022-11-15T14:08:39;13.30;99.90
45409;DHT22;31162;51.076;3.784;2022-11-15T14:13:39;13.20;99.90
45409;DHT22;31162;51.076;3.784;2022-11-15T14:18:46;13.20;99.90
45409;DHT22;31162;51.076;3.784;2022-11-15T14:21:12;13.20;99.90
45409;DHT22;31162;51.076;3.784;2022-11-15T14:23:38;13.20;99.90
45409;DHT22;31162;51.076;3.784;2022-11-15T14:26:04;13.00;99.90
45409;DHT22;31162;51.076;3.784;2022-11-15T14:28:33;12.90;99.90
45409;DHT22;31162;51.076;3.784;2022-11-15T14:31:06;12.90;99.90
45409;DHT22;31162;51.076;3.784;2022-11-15T14:33:36;12.90;99.90
45409;DHT22;31162;51.076;3.784;2022-11-15T14:36:16;12.90;99.90
45409;DHT22;31162;51.076;3.784;2022-11-15T14:38:43;12.80;99.90
45409;DHT22;31162;51.076;3.784;2022-11-15T14:41:23;12.70;99.90
45409;DHT22;31162;51.076;3.784;2022-11-15T14:43:50;12.70;99.90
45409;DHT22;31162;51.076;3.784;2022-11-15T14:46:16;12.70;99.90
45409;DHT22;31162;51.076;3.784;2022-11-15T14:48:42;12.70;99.90
45409;DHT22;31162;51.076;3.784;2022-11-15T14:51:20;12.70;99.90
45409;DHT22;31162;51.076;3.784;2022-11-15T14:53:47;12.50;99.90
45409;DHT22;31162;51.076;3.784;2022-11-15T14:56:13;12.50;99.90
45409;DHT22;31162;51.076;3.784;2022-11-15T14:58:39;12.40;99.90
45409;DHT22;31162;51.076;3.784;2022-11-15T15:01:20;12.40;99.90
45409;DHT22;31162;51.076;3.784;2022-11-15T15:03:46;12.40;99.90
45409;DHT22;31162;51.076;3.784;2022-11-15T15:06:12;12.30;99.90
45409;DHT22;31162;51.076;3.784;2022-11-15T15:08:39;12.30;99.90
45409;DHT22;31162;51.076;3.784;2022-11-15T15:11:20;12.40;99.90
45409;DHT22;31162;51.076;3.784;2022-11-15T15:13:46;12.30;99.90
45409;DHT22;31162;51.076;3.784;2022-11-15T15:16:12;12.30;99.90
45409;DHT22;31162;51.076;3.784;2022-11-15T15:18:37;12.30;99.90
45409;DHT22;31162;51.076;3.784;2022-11-15T15:21:26;12.40;99.90
45409;DHT22;31162;51.076;3.784;2022-11-15T15:23:53;12.30;99.90
45409;DHT22;31162;51.076;3.784;2022-11-15T15:26:25;12.20;99.90
45409;DHT22;31162;51.076;3.784;2022-11-15T15:28:51;12.20;99.90
45409;DHT22;31162;51.076;3.784;2022-11-15T15:31:17;12.20;99.90
45409;DHT22;31162;51.076;3.784;2022-11-15T15:33:43;12.10;99.90
45409;DHT22;31162;51.076;3.784;2022-11-15T15:36:11;12.30;99.90
45409;DHT22;31162;51.076;3.784;2022-11-15T15:38:37;12.20;99.90
45409;DHT22;31162;51.076;3.784;2022-11-15T15:41:09;12.30;99.90
45409;DHT22;31162;51.076;3.784;2022-11-15T15:43:35;12.30;99.90
45409;DHT22;31162;51.076;3.784;2022-11-15T15:46:00;12.30;99.90
45409;DHT22;31162;51.076;3.784;2022-11-15T15:48:26;12.30;99.90
45409;DHT22;31162;51.076;3.784;2022-11-15T15:50:52;12.40;99.90
45409;DHT22;31162;51.076;3.784;2022-11-15T15:53:17;12.40;99.90
45409;DHT22;31162;51.076;3.784;2022-11-15T15:55:43;12.40;99.90
45409;DHT22;31162;51.076;3.784;2022-11-15T15:58:08;12.40;99.90
45409;DHT22;31162;51.076;3.784;2022-11-15T16:00:34;12.50;99.90
45409;DHT22;31162;51.076;3.784;2022-11-15T16:03:00;12.50;99.90
45409;DHT22;31162;51.076;3.784;2022-11-15T16:05:26;12.60;99.90
45409;DHT22;31162;51.076;3.784;2022-11-15T16:07:51;12.60;99.90
45409;DHT22;31162;51.076;3.784;2022-11-15T16:10:21;12.60;99.90
45409;DHT22;31162;51.076;3.784;2022-11-15T16:12:48;12.50;99.90
45409;DHT22;31162;51.076;3.784;2022-11-15T16:15:14;12.50;99.90
45409;DHT22;31162;51.076;3.784;2022-11-15T16:17:42;12.40;99.90
45409;DHT22;31162;51.076;3.784;2022-11-15T16:22:49;12.50;99.90
45409;DHT22;31162;51.076;3.784;2022-11-15T16:25:14;12.60;99.90
45409;DHT22;31162;51.076;3.784;2022-11-15T16:27:40;12.70;99.90
45409;DHT22;31162;51.076;3.784;2022-11-15T16:30:21;12.70;99.90
45409;DHT22;31162;51.076;3.784;2022-11-15T16:32:47;12.60;99.90
45409;DHT22;31162;51.076;3.784;2022-11-15T16:35:14;12.70;99.90
45409;DHT22;31162;51.076;3.784;2022-11-15T16:37:40;12.70;99.90
45409;DHT22;31162;51.076;3.784;2022-11-15T16:40:33;12.60;99.90
45409;DHT22;31162;51.076;3.784;2022-11-15T16:43:00;12.60;99.90
45409;DHT22;31162;51.076;3.784;2022-11-15T16:45:27;12.60;99.90
45409;DHT22;31162;51.076;3.784;2022-11-15T16:47:55;12.60;99.90
45409;DHT22;31162;51.076;3.784;2022-11-15T16:50:22;12.60;99.90
45409;DHT22;31162;51.076;3.784;2022-11-15T16:52:53;12.70;99.90
45409;DHT22;31162;51.076;3.784;2022-11-15T16:55:20;12.60;99.90
45409;DHT22;31162;51.076;3.784;2022-11-15T16:57:46;12.60;99.90
45409;DHT22;31162;51.076;3.784;2022-11-15T17:00:13;12.70;99.90
45409;DHT22;31162;51.076;3.784;2022-11-15T17:02:45;12.80;99.90
45409;DHT22;31162;51.076;3.784;2022-11-15T17:05:12;12.80;99.90
45409;DHT22;31162;51.076;3.784;2022-11-15T17:07:39;12.80;99.90
45409;DHT22;31162;51.076;3.784;2022-11-15T17:10:06;12.70;99.90
45409;DHT22;31162;51.076;3.784;2022-11-15T17:12:33;12.80;99.90
45409;DHT22;31162;51.076;3.784;2022-11-15T17:14:59;12.80;99.90
45409;DHT22;31162;51.076;3.784;2022-11-15T17:17:24;12.70;99.90
45409;DHT22;31162;51.076;3.784;2022-11-15T17:19:51;12.60;99.90
45409;DHT22;31162;51.076;3.784;2022-11-15T17:22:18;12.70;99.90
45409;DHT22;31162;51.076;3.784;2022-11-15T17:24:44;12.70;99.90
45409;DHT22;31162;51.076;3.784;2022-11-15T17:27:09;12.70;99.90
45409;DHT22;31162;51.076;3.784;2022-11-15T17:29:35;12.80;99.90
45409;DHT22;31162;51.076;3.784;2022-11-15T17:32:01;12.80;99.90
45409;DHT22;31162;51.076;3.784;2022-11-15T17:34:26;12.80;99.90
45409;DHT22;31162;51.076;3.784;2022-11-15T17:36:52;12.80;99.90
45409;DHT22;31162;51.076;3.784;2022-11-15T17:39:17;12.80;99.90
45409;DHT22;31162;51.076;3.784;2022-11-15T17:41:48;12.70;99.90